This is the latest recevied weather packets stored in our database for station/object VE3MNX. If no packets are shown the sender has not sent any weather packets the latest 10 day(s).
| Time | Temp. | Humidity | Pressure | Rain* | Wind** | Luminosity | Snow |
|---|---|---|---|---|---|---|---|
| 1777586028 | 11.11° C | 50% | 1012.2 hPa | 0 mm | - | - | - |
| 1777585128 | 11.11° C | 53% | 1011.9 hPa | 0 mm | - | - | - |
| 1777584228 | 11.11° C | 49% | 1012.2 hPa | 0 mm | - | - | - |
| 1777583329 | 11.67° C | 48% | 1011.9 hPa | 0 mm | - | - | - |
| 1777582429 | 11.67° C | 48% | 1011.9 hPa | 0 mm | - | - | - |
| 1777581529 | 11.67° C | 51% | 1011.9 hPa | 0 mm | - | - | - |
| 1777580628 | 11.11° C | 55% | 1011.9 hPa | 0 mm | - | - | - |
| 1777579727 | 12.22° C | 50% | 1011.9 hPa | 0 mm | - | - | - |
| 1777578829 | 11.11° C | 56% | 1011.9 hPa | 0 mm | - | - | - |
| 1777577928 | 11.11° C | 54% | 1012.2 hPa | 0 mm | - | - | - |
| 1777577029 | 11.11° C | 55% | 1012.2 hPa | 0 mm | - | - | - |
| 1777576128 | 10.56° C | 59% | 1012.5 hPa | 0 mm | - | - | - |
| 1777575229 | 10.56° C | 55% | 1012.2 hPa | 0 mm | - | - | - |
| 1777574333 | 10.56° C | 56% | 1012.5 hPa | 0 mm | - | - | - |
| 1777573428 | 10.56° C | 57% | 1012.2 hPa | 0 mm | - | - | - |
| 1777572528 | 10.56° C | 57% | 1012.5 hPa | 0 mm | - | - | - |
| 1777571628 | 11.67° C | 58% | 1012.2 hPa | 0 mm | - | - | - |
| 1777570728 | 11.11° C | 61% | 1012.5 hPa | 0 mm | - | - | - |
| 1777569828 | 10° C | 67% | 1012.5 hPa | 0 mm | - | - | - |
| 1777568928 | 10.56° C | 61% | 1012.9 hPa | 0 mm | - | - | - |
| 1777568028 | 10.56° C | 64% | 1012.9 hPa | 0 mm | - | - | - |
| 1777567128 | 10.56° C | 62% | 1012.5 hPa | 0 mm | - | - | - |
| 1777566229 | 10° C | 66% | 1012.9 hPa | 0 mm | - | - | - |
| 1777565328 | 10° C | 67% | 1012.9 hPa | 0 mm | - | - | - |
| 1777564428 | 10° C | 73% | 1012.9 hPa | 0 mm | - | - | - |
* Rain latest hour (hover to see other rain measurements)
** Current wind speed in m/s (hover to see current wind gust speed)